sensor_id;sensor_type;location;lat;lon;timestamp;temperature;humidity
54409;DHT22;40315;48.620;9.828;2023-02-28T00:01:09;-1.60;99.90
54409;DHT22;40315;48.620;9.828;2023-02-28T00:03:37;-1.60;99.90
54409;DHT22;40315;48.620;9.828;2023-02-28T00:06:07;-1.60;99.90
54409;DHT22;40315;48.620;9.828;2023-02-28T00:08:38;-1.70;99.90
54409;DHT22;40315;48.620;9.828;2023-02-28T00:11:09;-1.60;99.90
54409;DHT22;40315;48.620;9.828;2023-02-28T00:13:44;-1.60;99.90
54409;DHT22;40315;48.620;9.828;2023-02-28T00:16:14;-1.60;99.90
54409;DHT22;40315;48.620;9.828;2023-02-28T00:18:45;-1.60;99.90
54409;DHT22;40315;48.620;9.828;2023-02-28T00:21:14;-1.70;99.90
54409;DHT22;40315;48.620;9.828;2023-02-28T00:23:42;-1.70;99.90
54409;DHT22;40315;48.620;9.828;2023-02-28T00:26:09;-1.60;99.90
54409;DHT22;40315;48.620;9.828;2023-02-28T00:28:38;-1.60;99.90
54409;DHT22;40315;48.620;9.828;2023-02-28T00:31:08;-1.60;99.90
54409;DHT22;40315;48.620;9.828;2023-02-28T00:33:39;-1.70;99.90
54409;DHT22;40315;48.620;9.828;2023-02-28T00:36:10;-1.60;99.90
54409;DHT22;40315;48.620;9.828;2023-02-28T00:38:39;-1.70;99.90
54409;DHT22;40315;48.620;9.828;2023-02-28T00:41:07;-1.70;99.90
54409;DHT22;40315;48.620;9.828;2023-02-28T00:43:36;-1.60;99.90
54409;DHT22;40315;48.620;9.828;2023-02-28T00:46:05;-1.60;99.90
54409;DHT22;40315;48.620;9.828;2023-02-28T00:48:34;-1.60;99.90
54409;DHT22;40315;48.620;9.828;2023-02-28T00:51:03;-1.60;99.90
54409;DHT22;40315;48.620;9.828;2023-02-28T00:53:32;-2.70;99.90
54409;DHT22;40315;48.620;9.828;2023-02-28T00:55:59;-1.70;99.90
54409;DHT22;40315;48.620;9.828;2023-02-28T00:58:31;-1.70;99.90
54409;DHT22;40315;48.620;9.828;2023-02-28T01:00:58;-2.30;99.90
54409;DHT22;40315;48.620;9.828;2023-02-28T01:03:26;-1.80;99.90
54409;DHT22;40315;48.620;9.828;2023-02-28T01:05:54;-1.80;99.90
54409;DHT22;40315;48.620;9.828;2023-02-28T01:08:22;-1.80;99.90
54409;DHT22;40315;48.620;9.828;2023-02-28T01:10:50;-1.80;99.90
54409;DHT22;40315;48.620;9.828;2023-02-28T01:13:18;-1.80;99.90
54409;DHT22;40315;48.620;9.828;2023-02-28T01:15:49;-1.70;99.90
54409;DHT22;40315;48.620;9.828;2023-02-28T01:18:16;-1.80;99.90
54409;DHT22;40315;48.620;9.828;2023-02-28T01:20:43;-1.80;99.90
54409;DHT22;40315;48.620;9.828;2023-02-28T01:23:13;-1.80;99.90
54409;DHT22;40315;48.620;9.828;2023-02-28T01:25:40;-1.80;99.90
54409;DHT22;40315;48.620;9.828;2023-02-28T01:28:07;-1.80;99.90
54409;DHT22;40315;48.620;9.828;2023-02-28T01:30:35;-1.70;99.90
54409;DHT22;40315;48.620;9.828;2023-02-28T01:33:03;-1.80;99.90
54409;DHT22;40315;48.620;9.828;2023-02-28T01:35:33;-1.80;99.90
54409;DHT22;40315;48.620;9.828;2023-02-28T01:38:00;-1.80;99.90
54409;DHT22;40315;48.620;9.828;2023-02-28T01:40:30;-1.90;99.90
54409;DHT22;40315;48.620;9.828;2023-02-28T01:42:57;-1.90;99.90
54409;DHT22;40315;48.620;9.828;2023-02-28T02:02:19;-1.70;99.90
54409;DHT22;40315;48.620;9.828;2023-02-28T02:04:53;-1.80;99.90
54409;DHT22;40315;48.620;9.828;2023-02-28T02:07:25;-1.60;99.90
54409;DHT22;40315;48.620;9.828;2023-02-28T02:10:00;-1.90;99.90
54409;DHT22;40315;48.620;9.828;2023-02-28T02:12:35;-1.90;99.90
54409;DHT22;40315;48.620;9.828;2023-02-28T02:15:12;-1.90;99.90
54409;DHT22;40315;48.620;9.828;2023-02-28T02:17:45;-1.10;99.90
54409;DHT22;40315;48.620;9.828;2023-02-28T02:23:47;-1.90;99.90
54409;DHT22;40315;48.620;9.828;2023-02-28T02:29:51;-2.00;99.90
54409;DHT22;40315;48.620;9.828;2023-02-28T02:35:28;-2.10;99.90
54409;DHT22;40315;48.620;9.828;2023-02-28T02:38:03;-2.10;99.90
54409;DHT22;40315;48.620;9.828;2023-02-28T02:40:38;-2.10;99.90
54409;DHT22;40315;48.620;9.828;2023-02-28T02:43:16;-2.20;99.90
54409;DHT22;40315;48.620;9.828;2023-02-28T02:45:49;-2.20;99.90
54409;DHT22;40315;48.620;9.828;2023-02-28T02:48:24;-2.20;99.90
54409;DHT22;40315;48.620;9.828;2023-02-28T02:50:55;-1.30;99.90
54409;DHT22;40315;48.620;9.828;2023-02-28T02:53:27;-2.00;99.90
54409;DHT22;40315;48.620;9.828;2023-02-28T02:56:00;-2.20;99.90
54409;DHT22;40315;48.620;9.828;2023-02-28T02:58:33;-2.20;99.90
54409;DHT22;40315;48.620;9.828;2023-02-28T03:01:02;-2.20;99.90
54409;DHT22;40315;48.620;9.828;2023-02-28T03:03:33;-2.10;99.90
54409;DHT22;40315;48.620;9.828;2023-02-28T03:06:04;-2.10;99.90
54409;DHT22;40315;48.620;9.828;2023-02-28T03:08:36;-0.80;99.90
54409;DHT22;40315;48.620;9.828;2023-02-28T03:11:06;-2.10;99.90
54409;DHT22;40315;48.620;9.828;2023-02-28T03:14:06;-2.10;99.90
54409;DHT22;40315;48.620;9.828;2023-02-28T03:16:49;-2.10;99.90
54409;DHT22;40315;48.620;9.828;2023-02-28T03:19:35;-0.20;99.90
54409;DHT22;40315;48.620;9.828;2023-02-28T03:22:45;-2.20;99.90
54409;DHT22;40315;48.620;9.828;2023-02-28T03:25:20;-2.10;99.90
54409;DHT22;40315;48.620;9.828;2023-02-28T03:27:57;-2.10;99.90
54409;DHT22;40315;48.620;9.828;2023-02-28T03:30:33;-1.30;99.90
54409;DHT22;40315;48.620;9.828;2023-02-28T03:33:20;-2.10;99.90
54409;DHT22;40315;48.620;9.828;2023-02-28T03:35:52;-2.10;99.90
54409;DHT22;40315;48.620;9.828;2023-02-28T03:38:27;-2.10;99.90
54409;DHT22;40315;48.620;9.828;2023-02-28T03:41:00;-2.10;99.90
54409;DHT22;40315;48.620;9.828;2023-02-28T03:43:31;-2.10;99.90
54409;DHT22;40315;48.620;9.828;2023-02-28T03:46:00;-2.10;99.90
54409;DHT22;40315;48.620;9.828;2023-02-28T03:48:33;-2.10;99.90
54409;DHT22;40315;48.620;9.828;2023-02-28T03:51:03;-2.10;99.90
54409;DHT22;40315;48.620;9.828;2023-02-28T03:53:39;-2.10;99.90
54409;DHT22;40315;48.620;9.828;2023-02-28T03:56:17;-2.10;99.90
54409;DHT22;40315;48.620;9.828;2023-02-28T03:58:49;-2.00;99.90
54409;DHT22;40315;48.620;9.828;2023-02-28T04:01:20;-2.00;99.90
54409;DHT22;40315;48.620;9.828;2023-02-28T04:03:49;-2.00;99.90
54409;DHT22;40315;48.620;9.828;2023-02-28T04:06:19;-1.90;99.90
54409;DHT22;40315;48.620;9.828;2023-02-28T04:08:48;-2.00;99.90
54409;DHT22;40315;48.620;9.828;2023-02-28T04:11:20;-2.00;99.90
54409;DHT22;40315;48.620;9.828;2023-02-28T04:13:48;-1.90;99.90
54409;DHT22;40315;48.620;9.828;2023-02-28T04:16:16;-2.00;99.90
54409;DHT22;40315;48.620;9.828;2023-02-28T04:18:43;-2.00;99.90
54409;DHT22;40315;48.620;9.828;2023-02-28T04:21:11;-2.00;99.90
54409;DHT22;40315;48.620;9.828;2023-02-28T04:23:39;-2.00;99.90
54409;DHT22;40315;48.620;9.828;2023-02-28T04:28:38;-2.00;99.90
54409;DHT22;40315;48.620;9.828;2023-02-28T04:31:05;-1.90;99.90
54409;DHT22;40315;48.620;9.828;2023-02-28T04:33:33;-1.90;99.90
54409;DHT22;40315;48.620;9.828;2023-02-28T04:36:01;-1.90;99.90
54409;DHT22;40315;48.620;9.828;2023-02-28T04:38:29;-2.00;99.90
54409;DHT22;40315;48.620;9.828;2023-02-28T04:40:58;-1.20;99.90
54409;DHT22;40315;48.620;9.828;2023-02-28T04:43:30;-1.90;99.90
54409;DHT22;40315;48.620;9.828;2023-02-28T04:46:00;-1.90;99.90
54409;DHT22;40315;48.620;9.828;2023-02-28T04:48:29;-1.90;99.90
54409;DHT22;40315;48.620;9.828;2023-02-28T04:51:00;-1.90;99.90
54409;DHT22;40315;48.620;9.828;2023-02-28T04:53:28;-1.90;99.90
54409;DHT22;40315;48.620;9.828;2023-02-28T04:55:58;-1.90;99.90
54409;DHT22;40315;48.620;9.828;2023-02-28T04:58:25;-1.90;99.90
54409;DHT22;40315;48.620;9.828;2023-02-28T05:01:01;-1.90;99.90
54409;DHT22;40315;48.620;9.828;2023-02-28T05:03:29;-2.00;99.90
54409;DHT22;40315;48.620;9.828;2023-02-28T05:05:58;-2.00;99.90
54409;DHT22;40315;48.620;9.828;2023-02-28T05:08:25;-1.00;99.90
54409;DHT22;40315;48.620;9.828;2023-02-28T05:10:52;-2.00;99.90
54409;DHT22;40315;48.620;9.828;2023-02-28T06:02:43;-1.90;99.90
54409;DHT22;40315;48.620;9.828;2023-02-28T06:05:15;-1.90;99.90
54409;DHT22;40315;48.620;9.828;2023-02-28T06:12:40;-1.90;99.90
54409;DHT22;40315;48.620;9.828;2023-02-28T06:17:39;-1.40;99.90
54409;DHT22;40315;48.620;9.828;2023-02-28T07:29:11;-1.50;99.90
54409;DHT22;40315;48.620;9.828;2023-02-28T07:31:38;-1.60;99.90
54409;DHT22;40315;48.620;9.828;2023-02-28T07:34:11;-1.50;99.90
54409;DHT22;40315;48.620;9.828;2023-02-28T07:49:06;-1.40;99.90
54409;DHT22;40315;48.620;9.828;2023-02-28T07:58:58;-1.40;99.90
54409;DHT22;40315;48.620;9.828;2023-02-28T08:01:27;-1.40;99.90
54409;DHT22;40315;48.620;9.828;2023-02-28T08:03:54;-1.40;99.90
54409;DHT22;40315;48.620;9.828;2023-02-28T08:06:24;-1.30;99.90
54409;DHT22;40315;48.620;9.828;2023-02-28T08:08:51;-1.30;99.90
54409;DHT22;40315;48.620;9.828;2023-02-28T08:11:21;-1.30;99.90
54409;DHT22;40315;48.620;9.828;2023-02-28T08:13:48;-1.30;99.90
54409;DHT22;40315;48.620;9.828;2023-02-28T08:16:16;-1.30;99.90
54409;DHT22;40315;48.620;9.828;2023-02-28T08:18:48;-1.20;99.90
54409;DHT22;40315;48.620;9.828;2023-02-28T08:21:16;-1.30;99.90
54409;DHT22;40315;48.620;9.828;2023-02-28T08:23:43;-1.20;99.90
54409;DHT22;40315;48.620;9.828;2023-02-28T08:26:12;-1.20;99.90
54409;DHT22;40315;48.620;9.828;2023-02-28T08:31:12;-1.20;99.90
54409;DHT22;40315;48.620;9.828;2023-02-28T08:33:44;-1.20;99.90
54409;DHT22;40315;48.620;9.828;2023-02-28T08:36:13;-1.20;99.90
54409;DHT22;40315;48.620;9.828;2023-02-28T08:38:40;0.00;99.90
54409;DHT22;40315;48.620;9.828;2023-02-28T08:41:10;-1.20;99.90
54409;DHT22;40315;48.620;9.828;2023-02-28T08:43:40;-1.10;99.90
54409;DHT22;40315;48.620;9.828;2023-02-28T08:46:11;-1.10;99.90
54409;DHT22;40315;48.620;9.828;2023-02-28T08:48:39;-1.00;99.90
54409;DHT22;40315;48.620;9.828;2023-02-28T08:51:09;-0.90;99.90
54409;DHT22;40315;48.620;9.828;2023-02-28T08:53:37;-1.00;99.90
54409;DHT22;40315;48.620;9.828;2023-02-28T08:56:07;-1.00;99.90
54409;DHT22;40315;48.620;9.828;2023-02-28T08:58:35;-0.90;99.90
54409;DHT22;40315;48.620;9.828;2023-02-28T09:03:36;-0.80;99.90
54409;DHT22;40315;48.620;9.828;2023-02-28T09:06:04;-0.80;99.90
54409;DHT22;40315;48.620;9.828;2023-02-28T09:08:32;-0.80;99.90
54409;DHT22;40315;48.620;9.828;2023-02-28T09:10:59;-0.80;99.90
54409;DHT22;40315;48.620;9.828;2023-02-28T09:13:28;-0.50;99.90
54409;DHT22;40315;48.620;9.828;2023-02-28T09:15:57;-1.20;99.90
54409;DHT22;40315;48.620;9.828;2023-02-28T09:18:28;-0.60;99.90
54409;DHT22;40315;48.620;9.828;2023-02-28T09:20:55;-0.50;99.90
54409;DHT22;40315;48.620;9.828;2023-02-28T09:23:23;-0.50;99.90
54409;DHT22;40315;48.620;9.828;2023-02-28T09:25:53;-0.40;99.90
54409;DHT22;40315;48.620;9.828;2023-02-28T09:28:21;-0.40;99.90
54409;DHT22;40315;48.620;9.828;2023-02-28T09:30:50;-0.40;99.90
54409;DHT22;40315;48.620;9.828;2023-02-28T09:38:16;-0.40;99.90
54409;DHT22;40315;48.620;9.828;2023-02-28T09:40:48;0.70;99.90
54409;DHT22;40315;48.620;9.828;2023-02-28T09:43:17;-0.40;99.90
54409;DHT22;40315;48.620;9.828;2023-02-28T09:45:49;-0.30;99.90
54409;DHT22;40315;48.620;9.828;2023-02-28T09:48:21;-0.30;99.90
54409;DHT22;40315;48.620;9.828;2023-02-28T09:51:02;-0.20;99.90
54409;DHT22;40315;48.620;9.828;2023-02-28T09:53:31;-0.20;99.90
54409;DHT22;40315;48.620;9.828;2023-02-28T09:56:02;-0.20;99.90
54409;DHT22;40315;48.620;9.828;2023-02-28T09:58:34;-0.10;99.90
54409;DHT22;40315;48.620;9.828;2023-02-28T10:01:11;-0.10;99.90
54409;DHT22;40315;48.620;9.828;2023-02-28T10:03:40;0.10;99.90
54409;DHT22;40315;48.620;9.828;2023-02-28T10:06:16;0.10;99.90
54409;DHT22;40315;48.620;9.828;2023-02-28T10:08:50;0.10;99.90
54409;DHT22;40315;48.620;9.828;2023-02-28T10:11:19;0.20;99.90
54409;DHT22;40315;48.620;9.828;2023-02-28T10:13:53;0.20;99.90
54409;DHT22;40315;48.620;9.828;2023-02-28T10:16:34;0.40;99.90
54409;DHT22;40315;48.620;9.828;2023-02-28T10:19:04;0.40;99.90
54409;DHT22;40315;48.620;9.828;2023-02-28T10:21:38;0.60;99.90
54409;DHT22;40315;48.620;9.828;2023-02-28T10:24:16;0.60;99.90
54409;DHT22;40315;48.620;9.828;2023-02-28T10:26:48;0.70;99.90
54409;DHT22;40315;48.620;9.828;2023-02-28T10:29:18;0.80;99.90
54409;DHT22;40315;48.620;9.828;2023-02-28T10:31:45;0.90;99.90
54409;DHT22;40315;48.620;9.828;2023-02-28T10:34:12;1.20;99.90
54409;DHT22;40315;48.620;9.828;2023-02-28T10:36:42;1.40;99.90
54409;DHT22;40315;48.620;9.828;2023-02-28T10:39:35;1.30;99.90
54409;DHT22;40315;48.620;9.828;2023-02-28T10:42:02;1.50;99.90
54409;DHT22;40315;48.620;9.828;2023-02-28T10:44:29;1.70;99.90
54409;DHT22;40315;48.620;9.828;2023-02-28T10:46:56;3.90;99.90
54409;DHT22;40315;48.620;9.828;2023-02-28T10:49:26;2.30;99.90
54409;DHT22;40315;48.620;9.828;2023-02-28T10:51:57;2.40;99.90
54409;DHT22;40315;48.620;9.828;2023-02-28T10:54:27;2.40;99.90
54409;DHT22;40315;48.620;9.828;2023-02-28T10:57:07;2.40;99.90
54409;DHT22;40315;48.620;9.828;2023-02-28T10:59:35;2.50;99.90
54409;DHT22;40315;48.620;9.828;2023-02-28T11:02:30;1.80;99.90
54409;DHT22;40315;48.620;9.828;2023-02-28T11:04:58;2.70;99.90
54409;DHT22;40315;48.620;9.828;2023-02-28T11:09:56;2.60;99.90
54409;DHT22;40315;48.620;9.828;2023-02-28T11:12:26;2.30;99.90
54409;DHT22;40315;48.620;9.828;2023-02-28T11:14:56;2.40;99.90
54409;DHT22;40315;48.620;9.828;2023-02-28T11:17:27;4.60;99.90
54409;DHT22;40315;48.620;9.828;2023-02-28T11:19:57;3.60;99.90
54409;DHT22;40315;48.620;9.828;2023-02-28T11:22:29;3.40;99.90
54409;DHT22;40315;48.620;9.828;2023-02-28T11:25:00;3.00;99.90
54409;DHT22;40315;48.620;9.828;2023-02-28T11:27:46;3.10;99.90
54409;DHT22;40315;48.620;9.828;2023-02-28T11:30:30;3.20;99.90
54409;DHT22;40315;48.620;9.828;2023-02-28T11:32:57;3.30;99.90
54409;DHT22;40315;48.620;9.828;2023-02-28T11:35:29;4.50;99.90
54409;DHT22;40315;48.620;9.828;2023-02-28T11:40:35;3.40;99.90
54409;DHT22;40315;48.620;9.828;2023-02-28T11:43:13;4.60;99.90
54409;DHT22;40315;48.620;9.828;2023-02-28T11:45:55;3.80;99.90
54409;DHT22;40315;48.620;9.828;2023-02-28T11:48:33;3.60;99.90
54409;DHT22;40315;48.620;9.828;2023-02-28T11:51:11;3.50;99.90
54409;DHT22;40315;48.620;9.828;2023-02-28T11:56:39;3.50;99.90
54409;DHT22;40315;48.620;9.828;2023-02-28T11:59:32;3.60;99.90
54409;DHT22;40315;48.620;9.828;2023-02-28T12:02:15;2.40;99.90
54409;DHT22;40315;48.620;9.828;2023-02-28T12:04:53;3.60;99.90
54409;DHT22;40315;48.620;9.828;2023-02-28T12:07:33;3.70;99.90
54409;DHT22;40315;48.620;9.828;2023-02-28T12:10:17;3.90;99.90
54409;DHT22;40315;48.620;9.828;2023-02-28T12:12:55;3.90;99.90
54409;DHT22;40315;48.620;9.828;2023-02-28T12:15:38;3.90;99.90
54409;DHT22;40315;48.620;9.828;2023-02-28T12:18:26;3.90;99.90
54409;DHT22;40315;48.620;9.828;2023-02-28T12:21:07;4.00;99.90
54409;DHT22;40315;48.620;9.828;2023-02-28T12:24:03;4.00;99.90
54409;DHT22;40315;48.620;9.828;2023-02-28T12:26:38;4.30;99.90
54409;DHT22;40315;48.620;9.828;2023-02-28T12:29:13;3.30;99.90
54409;DHT22;40315;48.620;9.828;2023-02-28T12:31:46;3.30;99.90
54409;DHT22;40315;48.620;9.828;2023-02-28T12:34:19;4.90;99.90
54409;DHT22;40315;48.620;9.828;2023-02-28T12:36:47;4.80;99.90
54409;DHT22;40315;48.620;9.828;2023-02-28T12:39:18;4.70;99.90
54409;DHT22;40315;48.620;9.828;2023-02-28T12:41:54;4.70;99.90
54409;DHT22;40315;48.620;9.828;2023-02-28T12:44:28;4.70;99.90
54409;DHT22;40315;48.620;9.828;2023-02-28T12:47:00;4.60;99.90
54409;DHT22;40315;48.620;9.828;2023-02-28T12:49:33;5.20;99.90
54409;DHT22;40315;48.620;9.828;2023-02-28T12:52:04;5.40;99.90
54409;DHT22;40315;48.620;9.828;2023-02-28T12:54:36;5.00;99.90
54409;DHT22;40315;48.620;9.828;2023-02-28T12:57:13;5.00;99.90
54409;DHT22;40315;48.620;9.828;2023-02-28T12:59:44;5.30;99.90
54409;DHT22;40315;48.620;9.828;2023-02-28T13:02:41;5.00;99.90
54409;DHT22;40315;48.620;9.828;2023-02-28T13:05:24;5.30;99.90
54409;DHT22;40315;48.620;9.828;2023-02-28T13:08:08;5.20;99.90
54409;DHT22;40315;48.620;9.828;2023-02-28T13:10:40;5.30;99.90
54409;DHT22;40315;48.620;9.828;2023-02-28T13:13:14;5.20;99.90
54409;DHT22;40315;48.620;9.828;2023-02-28T13:15:57;5.20;99.90
54409;DHT22;40315;48.620;9.828;2023-02-28T13:18:30;5.50;99.90
54409;DHT22;40315;48.620;9.828;2023-02-28T13:20:57;5.00;99.90
54409;DHT22;40315;48.620;9.828;2023-02-28T13:23:52;5.70;99.90
54409;DHT22;40315;48.620;9.828;2023-02-28T13:29:34;5.80;99.90
54409;DHT22;40315;48.620;9.828;2023-02-28T13:38:17;6.00;99.90
54409;DHT22;40315;48.620;9.828;2023-02-28T13:43:18;5.90;99.90
54409;DHT22;40315;48.620;9.828;2023-02-28T13:46:11;6.00;99.90
54409;DHT22;40315;48.620;9.828;2023-02-28T13:51:35;5.80;99.90
54409;DHT22;40315;48.620;9.828;2023-02-28T13:54:17;5.70;99.90
54409;DHT22;40315;48.620;9.828;2023-02-28T13:56:53;6.00;99.90
54409;DHT22;40315;48.620;9.828;2023-02-28T13:59:27;6.20;99.90
54409;DHT22;40315;48.620;9.828;2023-02-28T14:05:13;6.30;99.90
54409;DHT22;40315;48.620;9.828;2023-02-28T14:07:45;6.30;99.90
54409;DHT22;40315;48.620;9.828;2023-02-28T14:10:23;6.10;99.90
54409;DHT22;40315;48.620;9.828;2023-02-28T14:13:11;6.10;99.90
54409;DHT22;40315;48.620;9.828;2023-02-28T14:15:43;6.70;99.90
54409;DHT22;40315;48.620;9.828;2023-02-28T14:21:03;6.20;99.90
54409;DHT22;40315;48.620;9.828;2023-02-28T14:26:49;6.30;99.90
54409;DHT22;40315;48.620;9.828;2023-02-28T14:32:25;6.20;99.90
54409;DHT22;40315;48.620;9.828;2023-02-28T14:34:58;6.20;99.90
54409;DHT22;40315;48.620;9.828;2023-02-28T14:37:34;6.20;99.90
54409;DHT22;40315;48.620;9.828;2023-02-28T14:40:12;6.20;99.90
54409;DHT22;40315;48.620;9.828;2023-02-28T14:42:47;6.10;99.90
54409;DHT22;40315;48.620;9.828;2023-02-28T14:45:18;6.30;99.90
54409;DHT22;40315;48.620;9.828;2023-02-28T14:47:46;6.00;99.90
54409;DHT22;40315;48.620;9.828;2023-02-28T14:50:18;6.10;99.90
54409;DHT22;40315;48.620;9.828;2023-02-28T14:52:50;5.90;99.90
54409;DHT22;40315;48.620;9.828;2023-02-28T14:55:19;6.00;99.90
54409;DHT22;40315;48.620;9.828;2023-02-28T14:57:53;6.00;99.90
54409;DHT22;40315;48.620;9.828;2023-02-28T15:00:23;6.00;99.90
54409;DHT22;40315;48.620;9.828;2023-02-28T15:02:51;5.90;99.90
54409;DHT22;40315;48.620;9.828;2023-02-28T15:05:27;5.90;99.90
54409;DHT22;40315;48.620;9.828;2023-02-28T15:08:05;5.70;99.90
54409;DHT22;40315;48.620;9.828;2023-02-28T15:10:33;5.70;99.90
54409;DHT22;40315;48.620;9.828;2023-02-28T15:13:02;5.70;99.90
54409;DHT22;40315;48.620;9.828;2023-02-28T15:15:40;5.50;99.90
54409;DHT22;40315;48.620;9.828;2023-02-28T15:18:14;5.60;99.90
54409;DHT22;40315;48.620;9.828;2023-02-28T15:20:43;5.60;99.90
54409;DHT22;40315;48.620;9.828;2023-02-28T15:25:42;5.40;99.90
54409;DHT22;40315;48.620;9.828;2023-02-28T15:28:14;5.30;99.90
54409;DHT22;40315;48.620;9.828;2023-02-28T15:30:52;5.30;99.90
54409;DHT22;40315;48.620;9.828;2023-02-28T15:33:21;5.20;99.90
54409;DHT22;40315;48.620;9.828;2023-02-28T15:35:51;5.10;99.90
54409;DHT22;40315;48.620;9.828;2023-02-28T15:38:23;4.90;99.90
54409;DHT22;40315;48.620;9.828;2023-02-28T15:40:55;4.80;99.90
54409;DHT22;40315;48.620;9.828;2023-02-28T15:43:24;5.20;99.90
54409;DHT22;40315;48.620;9.828;2023-02-28T15:45:56;4.80;99.90
54409;DHT22;40315;48.620;9.828;2023-02-28T15:48:27;4.40;99.90
54409;DHT22;40315;48.620;9.828;2023-02-28T15:50:56;4.80;99.90
54409;DHT22;40315;48.620;9.828;2023-02-28T15:53:30;4.80;99.90
54409;DHT22;40315;48.620;9.828;2023-02-28T15:56:00;4.80;99.90
54409;DHT22;40315;48.620;9.828;2023-02-28T15:58:28;4.70;99.90
54409;DHT22;40315;48.620;9.828;2023-02-28T16:01:08;5.10;99.90
54409;DHT22;40315;48.620;9.828;2023-02-28T16:03:45;4.70;99.90
54409;DHT22;40315;48.620;9.828;2023-02-28T16:06:36;4.60;99.90
54409;DHT22;40315;48.620;9.828;2023-02-28T16:09:07;4.60;99.90
54409;DHT22;40315;48.620;9.828;2023-02-28T16:11:39;4.60;99.90
54409;DHT22;40315;48.620;9.828;2023-02-28T16:14:17;5.10;99.90
54409;DHT22;40315;48.620;9.828;2023-02-28T16:16:46;4.70;99.90
54409;DHT22;40315;48.620;9.828;2023-02-28T16:19:14;4.70;99.90
54409;DHT22;40315;48.620;9.828;2023-02-28T16:21:41;4.30;99.90
54409;DHT22;40315;48.620;9.828;2023-02-28T16:26:39;4.00;99.90
54409;DHT22;40315;48.620;9.828;2023-02-28T16:29:07;4.00;99.90
54409;DHT22;40315;48.620;9.828;2023-02-28T16:31:37;4.30;99.90
54409;DHT22;40315;48.620;9.828;2023-02-28T16:34:05;4.20;99.90
54409;DHT22;40315;48.620;9.828;2023-02-28T16:36:32;3.50;99.90
54409;DHT22;40315;48.620;9.828;2023-02-28T16:39:01;3.40;99.90
54409;DHT22;40315;48.620;9.828;2023-02-28T16:43:59;3.30;99.90
54409;DHT22;40315;48.620;9.828;2023-02-28T16:46:31;3.20;99.90
54409;DHT22;40315;48.620;9.828;2023-02-28T16:49:00;3.20;99.90
54409;DHT22;40315;48.620;9.828;2023-02-28T16:51:27;3.00;99.90
54409;DHT22;40315;48.620;9.828;2023-02-28T16:53:54;3.00;99.90
54409;DHT22;40315;48.620;9.828;2023-02-28T16:56:24;3.00;99.90
54409;DHT22;40315;48.620;9.828;2023-02-28T16:58:55;2.90;99.90
54409;DHT22;40315;48.620;9.828;2023-02-28T17:01:28;2.80;99.90
54409;DHT22;40315;48.620;9.828;2023-02-28T17:03:56;2.80;99.90
54409;DHT22;40315;48.620;9.828;2023-02-28T17:06:26;2.70;99.90
54409;DHT22;40315;48.620;9.828;2023-02-28T17:08:54;2.70;99.90
54409;DHT22;40315;48.620;9.828;2023-02-28T17:11:22;2.70;99.90
54409;DHT22;40315;48.620;9.828;2023-02-28T17:13:49;2.70;99.90
54409;DHT22;40315;48.620;9.828;2023-02-28T17:16:23;2.60;99.90
54409;DHT22;40315;48.620;9.828;2023-02-28T17:18:52;2.60;99.90
54409;DHT22;40315;48.620;9.828;2023-02-28T17:21:22;2.50;99.90
54409;DHT22;40315;48.620;9.828;2023-02-28T17:23:49;5.30;99.90
54409;DHT22;40315;48.620;9.828;2023-02-28T17:26:19;2.40;99.90
54409;DHT22;40315;48.620;9.828;2023-02-28T17:28:47;2.30;99.90
54409;DHT22;40315;48.620;9.828;2023-02-28T17:31:14;2.30;99.90
54409;DHT22;40315;48.620;9.828;2023-02-28T17:36:13;2.20;99.90
54409;DHT22;40315;48.620;9.828;2023-02-28T17:38:41;1.30;99.90
54409;DHT22;40315;48.620;9.828;2023-02-28T17:41:10;2.70;99.90
54409;DHT22;40315;48.620;9.828;2023-02-28T17:43:39;1.90;99.90
54409;DHT22;40315;48.620;9.828;2023-02-28T17:46:11;1.90;99.90
54409;DHT22;40315;48.620;9.828;2023-02-28T17:48:44;2.00;99.90
54409;DHT22;40315;48.620;9.828;2023-02-28T17:51:12;1.80;99.90
54409;DHT22;40315;48.620;9.828;2023-02-28T17:53:40;1.80;99.90
54409;DHT22;40315;48.620;9.828;2023-02-28T17:56:12;1.80;99.90
54409;DHT22;40315;48.620;9.828;2023-02-28T17:58:40;1.80;99.90
54409;DHT22;40315;48.620;9.828;2023-02-28T18:01:07;1.70;99.90
54409;DHT22;40315;48.620;9.828;2023-02-28T18:03:34;1.70;99.90
54409;DHT22;40315;48.620;9.828;2023-02-28T18:06:04;1.80;99.90
54409;DHT22;40315;48.620;9.828;2023-02-28T18:08:34;1.80;99.90
54409;DHT22;40315;48.620;9.828;2023-02-28T18:11:02;1.70;99.90
54409;DHT22;40315;48.620;9.828;2023-02-28T18:13:29;1.70;99.90
54409;DHT22;40315;48.620;9.828;2023-02-28T18:15:57;1.90;99.90
54409;DHT22;40315;48.620;9.828;2023-02-28T18:18:24;1.70;99.90
54409;DHT22;40315;48.620;9.828;2023-02-28T18:20:51;1.70;99.90
54409;DHT22;40315;48.620;9.828;2023-02-28T18:23:20;1.60;99.90
54409;DHT22;40315;48.620;9.828;2023-02-28T18:25:49;1.50;99.90
54409;DHT22;40315;48.620;9.828;2023-02-28T18:28:16;1.50;99.90
54409;DHT22;40315;48.620;9.828;2023-02-28T18:30:43;1.80;99.90
54409;DHT22;40315;48.620;9.828;2023-02-28T18:33:11;1.30;99.90
54409;DHT22;40315;48.620;9.828;2023-02-28T18:35:38;1.30;99.90
54409;DHT22;40315;48.620;9.828;2023-02-28T18:38:08;1.20;99.90
54409;DHT22;40315;48.620;9.828;2023-02-28T18:40:38;1.20;99.90
54409;DHT22;40315;48.620;9.828;2023-02-28T18:43:09;1.30;99.90
54409;DHT22;40315;48.620;9.828;2023-02-28T18:45:37;1.20;99.90
54409;DHT22;40315;48.620;9.828;2023-02-28T18:48:05;1.20;99.90
54409;DHT22;40315;48.620;9.828;2023-02-28T18:53:02;1.10;99.90
54409;DHT22;40315;48.620;9.828;2023-02-28T18:55:30;1.10;99.90
54409;DHT22;40315;48.620;9.828;2023-02-28T19:00:27;0.90;99.90
54409;DHT22;40315;48.620;9.828;2023-02-28T19:02:55;0.80;99.90
54409;DHT22;40315;48.620;9.828;2023-02-28T19:05:22;0.80;99.90
54409;DHT22;40315;48.620;9.828;2023-02-28T19:07:50;0.70;99.90
54409;DHT22;40315;48.620;9.828;2023-02-28T19:10:17;0.70;99.90
54409;DHT22;40315;48.620;9.828;2023-02-28T19:12:45;0.60;99.90
54409;DHT22;40315;48.620;9.828;2023-02-28T19:17:42;0.50;99.90
54409;DHT22;40315;48.620;9.828;2023-02-28T19:20:12;0.50;99.90
54409;DHT22;40315;48.620;9.828;2023-02-28T19:22:40;0.50;99.90
54409;DHT22;40315;48.620;9.828;2023-02-28T19:25:12;0.40;99.90
54409;DHT22;40315;48.620;9.828;2023-02-28T19:32:39;0.30;99.90
54409;DHT22;40315;48.620;9.828;2023-02-28T19:35:07;0.30;99.90
54409;DHT22;40315;48.620;9.828;2023-02-28T19:37:36;0.20;99.90
54409;DHT22;40315;48.620;9.828;2023-02-28T19:45:01;0.30;99.90
54409;DHT22;40315;48.620;9.828;2023-02-28T19:52:25;0.40;99.90
54409;DHT22;40315;48.620;9.828;2023-02-28T19:54:52;0.30;99.90
54409;DHT22;40315;48.620;9.828;2023-02-28T19:57:19;0.30;99.90
54409;DHT22;40315;48.620;9.828;2023-02-28T19:59:47;0.30;99.90
54409;DHT22;40315;48.620;9.828;2023-02-28T20:02:16;0.30;99.90
54409;DHT22;40315;48.620;9.828;2023-02-28T20:04:46;0.20;99.90
54409;DHT22;40315;48.620;9.828;2023-02-28T20:07:17;0.20;99.90
54409;DHT22;40315;48.620;9.828;2023-02-28T20:09:45;0.20;99.90
54409;DHT22;40315;48.620;9.828;2023-02-28T20:12:12;0.20;99.90
54409;DHT22;40315;48.620;9.828;2023-02-28T20:14:41;2.60;99.90
54409;DHT22;40315;48.620;9.828;2023-02-28T20:17:08;0.10;99.90
54409;DHT22;40315;48.620;9.828;2023-02-28T20:19:35;0.10;99.90